Time;durP1;ratioP1;P1;durP2;ratioP2;P2;SDS_P1;SDS_P2;PMS_P1;PMS_P2;Temp;Humidity;BMP_temperature;BMP_pressure;BME280_temperature;BME280_humidity;BME280_pressure;Samples;Min_cycle;Max_cycle;Signal;HPM_P1;HPM_P2
2024/01/06 00:00:17;;;;;;;56.33;29.77;;;1.60;1.00;;;;;;6299187;22;20177;-89
2024/01/06 00:02:44;;;;;;;52.47;31.13;;;1.60;1.00;;;;;;6288187;22;20223;-87
2024/01/06 00:05:11;;;;;;;51.13;32.25;;;1.60;1.00;;;;;;6288283;22;20200;-88
2024/01/06 00:07:41;;;;;;;52.63;28.88;;;1.50;1.00;;;;;;6293244;22;20185;-88
2024/01/06 00:10:10;;;;;;;58.55;32.17;;;1.50;1.00;;;;;;6293798;22;20170;-87
2024/01/06 00:12:37;;;;;;;50.90;29.42;;;1.50;1.00;;;;;;6303828;22;20185;-87
2024/01/06 00:15:05;;;;;;;45.97;31.25;;;1.50;1.00;;;;;;6302430;22;20197;-87
2024/01/06 00:17:33;;;;;;;57.92;31.00;;;1.60;1.00;;;;;;6303766;22;20640;-88
2024/01/06 00:20:02;;;;;;;51.10;28.35;;;1.50;1.00;;;;;;6303861;22;20173;-88
2024/01/06 00:22:29;;;;;;;50.33;29.80;;;1.60;1.00;;;;;;6300920;22;20178;-87
2024/01/06 00:24:56;;;;;;;57.17;30.00;;;1.60;1.00;;;;;;6299046;22;20193;-87
2024/01/06 00:27:25;;;;;;;62.70;31.35;;;1.50;1.00;;;;;;6298716;22;20225;-87
2024/01/06 00:29:52;;;;;;;46.42;30.23;;;1.60;1.00;;;;;;6302425;22;20228;-88
2024/01/06 00:32:19;;;;;;;47.60;28.50;;;1.60;1.00;;;;;;6296551;22;20174;-87
2024/01/06 00:34:47;;;;;;;50.60;29.15;;;1.50;1.00;;;;;;6287351;22;20202;-88
2024/01/06 00:37:14;;;;;;;52.40;30.85;;;1.50;1.00;;;;;;6288736;22;20520;-86
2024/01/06 00:39:41;;;;;;;47.58;27.25;;;1.50;1.00;;;;;;6288383;22;20173;-88
2024/01/06 00:42:08;;;;;;;52.55;30.90;;;1.50;1.00;;;;;;6287488;22;20177;-89
2024/01/06 00:44:37;;;;;;;46.55;28.65;;;1.50;1.00;;;;;;6286570;22;20239;-87
2024/01/06 00:47:05;;;;;;;50.33;27.85;;;1.40;1.00;;;;;;6286299;22;20249;-87
2024/01/06 00:49:32;;;;;;;45.40;27.13;;;1.50;1.00;;;;;;6288554;22;20197;-88
2024/01/06 00:51:59;;;;;;;39.38;25.80;;;1.40;1.00;;;;;;6304619;22;20180;-88
2024/01/06 00:54:25;;;;;;;54.05;28.40;;;1.50;1.00;;;;;;6304925;22;20197;-87
2024/01/06 00:56:52;;;;;;;46.45;27.80;;;1.50;1.00;;;;;;6287181;22;20188;-87
2024/01/06 00:59:19;;;;;;;44.63;27.38;;;1.50;1.00;;;;;;6287792;22;20640;-88
2024/01/06 01:01:48;;;;;;;57.40;30.10;;;1.50;1.00;;;;;;6299102;22;20174;-87
2024/01/06 01:04:15;;;;;;;45.88;26.67;;;1.40;1.00;;;;;;6299410;22;20192;-87
2024/01/06 01:06:42;;;;;;;46.70;26.58;;;1.50;1.00;;;;;;6297134;22;20169;-87
2024/01/06 01:09:10;;;;;;;49.90;27.60;;;1.50;1.00;;;;;;6297349;22;20190;-88
2024/01/06 01:11:37;;;;;;;45.70;27.00;;;1.40;99.90;;;;;;6297486;22;20157;-87
2024/01/06 01:14:04;;;;;;;48.90;27.52;;;1.60;1.00;;;;;;6288144;22;20549;-87
2024/01/06 01:16:32;;;;;;;44.78;25.77;;;1.40;99.90;;;;;;6286861;22;20178;-87
2024/01/06 01:19:01;;;;;;;46.08;28.60;;;1.50;1.00;;;;;;6284541;22;20205;-87
2024/01/06 01:21:28;;;;;;;44.15;26.33;;;1.40;99.90;;;;;;6284564;22;20173;-87
2024/01/06 01:23:55;;;;;;;42.92;26.48;;;1.40;99.90;;;;;;6285334;22;20685;-87
2024/01/06 01:26:22;;;;;;;45.70;25.90;;;1.30;99.90;;;;;;6283963;22;20178;-87
2024/01/06 01:28:49;;;;;;;39.78;25.20;;;1.40;1.00;;;;;;6283477;22;20204;-88
2024/01/06 01:31:16;;;;;;;48.00;26.45;;;1.40;1.00;;;;;;6290351;22;20177;-87
2024/01/06 01:33:43;;;;;;;42.10;26.80;;;1.40;99.90;;;;;;6298326;22;20169;-88
2024/01/06 01:36:11;;;;;;;43.85;27.23;;;1.40;99.90;;;;;;6305301;22;20161;-88
2024/01/06 01:38:38;;;;;;;45.63;25.27;;;1.40;99.90;;;;;;6304478;22;20170;-86
2024/01/06 01:41:05;;;;;;;42.58;25.73;;;1.50;99.90;;;;;;6300326;22;20198;-86
2024/01/06 01:43:33;;;;;;;37.85;23.65;;;1.50;99.90;;;;;;6288281;22;20186;-88
2024/01/06 01:46:00;;;;;;;42.92;25.88;;;1.50;99.90;;;;;;6293061;22;20221;-87
2024/01/06 01:48:27;;;;;;;35.90;23.73;;;1.40;99.90;;;;;;6296080;22;20194;-87
2024/01/06 01:50:55;;;;;;;43.10;26.98;;;1.50;99.90;;;;;;6285499;22;20173;-86
2024/01/06 01:53:26;;;;;;;43.40;25.83;;;1.50;99.90;;;;;;6285946;22;20197;-88
2024/01/06 01:55:54;;;;;;;44.22;24.00;;;1.40;99.90;;;;;;6295483;22;20209;-87
2024/01/06 01:58:21;;;;;;;46.15;26.33;;;1.30;99.90;;;;;;6304979;22;20162;-88
2024/01/06 02:00:48;;;;;;;44.83;24.52;;;1.40;99.90;;;;;;6301298;22;20204;-89
2024/01/06 02:03:15;;;;;;;44.03;25.23;;;1.30;99.90;;;;;;6293521;22;20184;-87
2024/01/06 02:05:42;;;;;;;44.67;25.67;;;1.40;99.90;;;;;;6305142;22;20213;-88
2024/01/06 02:08:09;;;;;;;40.65;23.90;;;1.40;99.90;;;;;;6304880;22;20468;-88
2024/01/06 02:10:38;;;;;;;44.17;24.77;;;1.40;99.90;;;;;;6299113;22;20165;-87
2024/01/06 02:13:12;;;;;;;43.53;23.00;;;1.40;99.90;;;;;;6287445;22;20182;-88
2024/01/06 02:15:38;;;;;;;38.55;22.98;;;1.50;99.90;;;;;;6285980;22;20198;-86
2024/01/06 02:18:06;;;;;;;38.88;23.70;;;1.50;99.90;;;;;;6285717;22;20211;-87
2024/01/06 02:20:33;;;;;;;40.83;24.27;;;1.40;99.90;;;;;;6285708;22;20181;-87
2024/01/06 02:23:02;;;;;;;40.13;24.15;;;1.50;99.90;;;;;;6293449;22;20219;-88
2024/01/06 02:25:29;;;;;;;42.92;23.70;;;1.50;99.90;;;;;;6284832;22;20193;-88
2024/01/06 02:27:56;;;;;;;39.78;23.23;;;1.30;99.90;;;;;;6304801;22;20161;-88
2024/01/06 02:30:23;;;;;;;42.05;24.23;;;1.50;99.90;;;;;;6304899;22;20201;-87
2024/01/06 02:32:50;;;;;;;38.50;24.63;;;1.50;99.90;;;;;;6305142;22;20174;-88
2024/01/06 02:35:17;;;;;;;37.88;24.83;;;1.40;99.90;;;;;;6289622;22;20202;-89
2024/01/06 02:37:47;;;;;;;38.60;24.65;;;1.90;99.90;;;;;;6226854;23;20510;-87
2024/01/06 02:40:16;;;;;;;41.25;25.00;;;1.60;99.90;;;;;;6253517;23;20746;-87
2024/01/06 02:42:43;;;;;;;37.88;21.58;;;1.30;99.90;;;;;;6253935;23;20193;-88
2024/01/06 02:45:10;;;;;;;38.78;22.55;;;1.40;99.90;;;;;;6256692;23;20191;-89
2024/01/06 02:47:37;;;;;;;37.55;23.63;;;1.40;99.90;;;;;;6260840;23;20186;-87
2024/01/06 02:50:04;;;;;;;47.00;25.83;;;1.40;99.90;;;;;;6273377;23;20190;-88
2024/01/06 02:52:31;;;;;;;45.75;25.33;;;1.40;99.90;;;;;;6271918;22;20170;-89
2024/01/06 02:54:58;;;;;;;47.38;25.42;;;1.40;99.90;;;;;;6262780;23;20690;-86
2024/01/06 02:57:27;;;;;;;41.72;25.80;;;1.40;99.90;;;;;;6255145;23;20178;-86
2024/01/06 02:59:54;;;;;;;39.70;24.80;;;1.40;99.90;;;;;;6256012;23;20194;-85
2024/01/06 03:02:21;;;;;;;35.92;22.95;;;1.40;99.90;;;;;;6256142;23;20179;-88
2024/01/06 03:04:48;;;;;;;37.63;24.08;;;1.40;99.90;;;;;;6271804;22;20178;-88
2024/01/06 03:07:15;;;;;;;42.15;25.27;;;1.30;99.90;;;;;;6273446;22;20186;-88
2024/01/06 03:09:42;;;;;;;41.38;25.45;;;1.40;99.90;;;;;;6264968;22;20197;-88
2024/01/06 03:12:09;;;;;;;37.05;23.67;;;1.30;99.90;;;;;;6255823;23;20193;-87
2024/01/06 03:14:37;;;;;;;36.72;23.60;;;1.30;99.90;;;;;;6254069;23;20205;-86
2024/01/06 03:17:04;;;;;;;38.88;23.98;;;1.30;99.90;;;;;;6253892;23;20174;-86
2024/01/06 03:19:32;;;;;;;39.28;22.80;;;1.30;99.90;;;;;;6254083;23;20170;-89
2024/01/06 03:21:59;;;;;;;42.65;25.48;;;1.30;99.90;;;;;;6268867;23;20230;-86
2024/01/06 03:24:27;;;;;;;34.33;21.70;;;1.40;99.90;;;;;;6263531;23;20232;-88
2024/01/06 03:26:54;;;;;;;39.40;21.50;;;1.40;99.90;;;;;;6255952;23;20265;-88
2024/01/06 03:29:21;;;;;;;35.25;21.60;;;1.40;99.90;;;;;;6256147;23;20734;-87
2024/01/06 03:31:49;;;;;;;39.92;24.58;;;1.40;99.90;;;;;;6258653;23;20170;-88
2024/01/06 03:34:16;;;;;;;39.13;24.63;;;1.30;99.90;;;;;;6257933;23;20202;-88
2024/01/06 03:36:43;;;;;;;40.20;25.13;;;1.40;99.90;;;;;;6261058;23;20171;-87
2024/01/06 03:39:12;;;;;;;38.13;23.33;;;1.30;99.90;;;;;;6254783;23;20183;-87
2024/01/06 03:41:39;;;;;;;42.50;24.25;;;1.30;99.90;;;;;;6255828;23;20215;-86
2024/01/06 03:44:05;;;;;;;44.83;25.52;;;1.40;99.90;;;;;;6256532;23;20198;-87
2024/01/06 03:46:33;;;;;;;45.05;24.23;;;1.40;99.90;;;;;;6268797;23;20191;-87
2024/01/06 03:49:01;;;;;;;43.38;24.20;;;1.30;99.90;;;;;;6262259;23;20202;-87
2024/01/06 03:51:28;;;;;;;39.63;24.10;;;1.30;99.90;;;;;;6264288;23;20165;-87
2024/01/06 03:53:55;;;;;;;36.50;21.88;;;1.30;99.90;;;;;;6275083;22;20185;-87
2024/01/06 03:56:22;;;;;;;39.10;23.92;;;1.30;99.90;;;;;;6269792;22;20477;-87
2024/01/06 03:58:49;;;;;;;35.53;22.00;;;1.30;99.90;;;;;;6258945;23;20174;-87
2024/01/06 04:01:16;;;;;;;40.00;24.88;;;1.30;99.90;;;;;;6259383;23;20170;-87
2024/01/06 04:03:43;;;;;;;45.30;24.67;;;1.30;99.90;;;;;;6258305;23;20179;-87
2024/01/06 04:06:11;;;;;;;37.50;23.38;;;1.30;99.90;;;;;;6258228;23;20244;-87
2024/01/06 04:08:40;;;;;;;39.88;23.50;;;1.40;99.90;;;;;;6256899;23;20190;-87
2024/01/06 04:11:07;;;;;;;40.08;21.60;;;1.30;99.90;;;;;;6258921;23;20541;-87
2024/01/06 04:13:33;;;;;;;39.17;22.83;;;1.30;99.90;;;;;;6258796;23;20205;-87
2024/01/06 04:16:00;;;;;;;37.65;22.70;;;1.20;99.90;;;;;;6257347;23;20185;-88
2024/01/06 04:18:27;;;;;;;41.00;23.20;;;1.30;99.90;;;;;;6257387;23;20181;-88
2024/01/06 04:20:54;;;;;;;44.10;24.42;;;1.30;99.90;;;;;;6257493;23;20174;-88
2024/01/06 04:23:23;;;;;;;45.35;23.55;;;1.20;99.90;;;;;;6261521;23;20174;-88
2024/01/06 04:25:52;;;;;;;49.45;25.05;;;1.20;99.90;;;;;;6274015;22;20225;-88
2024/01/06 04:28:19;;;;;;;36.17;22.20;;;1.20;99.90;;;;;;6272709;22;20239;-88
2024/01/06 04:30:46;;;;;;;37.00;23.80;;;1.20;99.90;;;;;;6273947;22;20224;-88
2024/01/06 04:33:13;;;;;;;56.33;26.02;;;1.20;99.90;;;;;;6272416;23;20171;-87
2024/01/06 04:35:40;;;;;;;42.53;26.33;;;1.20;99.90;;;;;;6271918;23;20209;-89
2024/01/06 04:38:06;;;;;;;46.25;24.15;;;1.20;99.90;;;;;;6266873;23;20213;-88
2024/01/06 04:40:35;;;;;;;46.83;25.70;;;1.30;99.90;;;;;;6269429;23;20178;-87
2024/01/06 04:43:03;;;;;;;44.65;25.55;;;1.20;99.90;;;;;;6262295;23;20170;-88
2024/01/06 04:45:30;;;;;;;49.70;26.27;;;1.20;99.90;;;;;;6258465;23;20547;-88
2024/01/06 04:47:56;;;;;;;41.72;24.50;;;1.20;99.90;;;;;;6259572;23;20186;-87
2024/01/06 04:50:24;;;;;;;44.45;24.27;;;1.30;99.90;;;;;;6257838;23;20205;-87
2024/01/06 04:52:51;;;;;;;42.30;24.00;;;1.30;99.90;;;;;;6259766;23;20204;-87
2024/01/06 04:55:18;;;;;;;46.40;25.20;;;1.30;99.90;;;;;;6274123;23;20186;-89
2024/01/06 04:57:46;;;;;;;47.35;25.35;;;1.20;99.90;;;;;;6274444;22;20154;-88
2024/01/06 05:00:14;;;;;;;48.90;27.13;;;1.30;99.90;;;;;;6272230;22;20628;-88
2024/01/06 05:02:41;;;;;;;45.75;25.35;;;1.20;99.90;;;;;;6259001;23;20613;-87
2024/01/06 05:05:08;;;;;;;48.53;26.63;;;1.20;99.90;;;;;;6255886;23;20221;-88
2024/01/06 05:07:36;;;;;;;49.00;27.48;;;1.30;99.90;;;;;;6266760;23;20173;-88
2024/01/06 05:10:03;;;;;;;55.95;28.17;;;1.30;99.90;;;;;;6263942;22;20201;-89
2024/01/06 05:12:30;;;;;;;46.97;26.05;;;1.20;99.90;;;;;;6258652;23;20178;-89
2024/01/06 05:14:59;;;;;;;44.83;25.13;;;1.20;99.90;;;;;;6254637;23;20194;-88
2024/01/06 05:17:26;;;;;;;49.03;27.90;;;1.20;99.90;;;;;;6253879;23;20362;-88
2024/01/06 05:19:52;;;;;;;48.90;24.27;;;1.20;99.90;;;;;;6252496;23;20217;-87
2024/01/06 05:22:19;;;;;;;45.72;26.20;;;1.20;99.90;;;;;;6254064;23;20524;-88
2024/01/06 05:24:46;;;;;;;50.95;27.85;;;1.20;99.90;;;;;;6254649;23;20209;-88
2024/01/06 05:27:13;;;;;;;46.63;26.48;;;1.20;99.90;;;;;;6254609;23;20181;-88
2024/01/06 05:29:40;;;;;;;48.00;26.67;;;1.30;99.90;;;;;;6254965;23;20198;-87
2024/01/06 05:32:10;;;;;;;46.58;25.85;;;1.20;99.90;;;;;;6255070;23;20174;-88
2024/01/06 05:34:37;;;;;;;47.47;26.00;;;1.20;99.90;;;;;;6254518;23;20210;-88
2024/01/06 05:39:48;;;;;;;50.05;30.00;;;1.20;99.90;;;;;;6258251;22;20192;-90
2024/01/06 05:42:49;;;;;;;58.25;27.55;;;1.20;99.90;;;;;;6252078;23;20200;-91
2024/01/06 05:45:19;;;;;;;50.38;27.20;;;1.50;99.90;;;;;;6251199;23;20201;-90
2024/01/06 05:48:00;;;;;;;56.08;26.98;;;1.20;99.90;;;;;;6262492;22;20166;-88
2024/01/06 05:50:31;;;;;;;54.83;27.08;;;1.20;99.90;;;;;;6274365;22;20174;-89
2024/01/06 05:53:26;;;;;;;51.10;29.52;;;1.10;99.90;;;;;;6274163;22;20151;-89
2024/01/06 05:56:09;;;;;;;;;;;;;;;;;;;;;
2024/01/06 05:58:54;;;;;;;51.53;29.92;;;1.10;99.90;;;;;;6251985;23;20166;-90
2024/01/06 06:01:36;;;;;;;49.58;27.77;;;1.30;99.90;;;;;;6253369;23;20173;-90
2024/01/06 06:04:30;;;;;;;54.95;29.95;;;1.20;99.90;;;;;;6266274;22;20154;-90
2024/01/06 06:07:14;;;;;;;67.22;27.95;;;1.20;99.90;;;;;;6255835;22;20190;-90
2024/01/06 06:09:49;;;;;;;53.28;28.60;;;1.20;99.90;;;;;;6266344;22;20157;-91
2024/01/06 06:12:46;;;;;;;51.72;28.65;;;1.50;99.90;;;;;;6249091;22;20194;-88
2024/01/06 06:16:01;;;;;;;;;;;;;;;;;;;;;
2024/01/06 06:19:03;;;;;;;48.15;26.75;;;1.10;99.90;;;;;;6222690;22;20175;-89
2024/01/06 06:22:07;;;;;;;52.47;26.35;;;1.10;99.90;;;;;;6217412;23;20197;-90
2024/01/06 06:27:32;;;;;;;55.50;27.15;;;1.10;99.90;;;;;;6223925;22;20198;-80
2024/01/06 06:29:58;;;;;;;45.97;25.58;;;1.00;99.90;;;;;;6254823;23;20563;-81
2024/01/06 06:32:26;;;;;;;48.13;26.63;;;1.00;99.90;;;;;;6262176;22;20178;-81
2024/01/06 06:34:52;;;;;;;44.03;27.02;;;1.00;99.90;;;;;;6267781;22;20179;-81
2024/01/06 06:37:21;;;;;;;47.67;26.20;;;1.10;99.90;;;;;;6267014;23;20225;-80
2024/01/06 06:39:47;;;;;;;53.30;28.65;;;1.10;99.90;;;;;;6270250;22;20217;-80
2024/01/06 06:42:14;;;;;;;48.40;25.40;;;1.10;99.90;;;;;;6266601;22;20204;-80
2024/01/06 06:44:41;;;;;;;58.92;28.27;;;1.10;99.90;;;;;;6269757;22;20208;-81
2024/01/06 06:47:08;;;;;;;54.97;28.75;;;1.00;99.90;;;;;;6269149;23;20198;-79
2024/01/06 06:49:35;;;;;;;41.13;24.42;;;1.10;99.90;;;;;;6271591;22;20201;-80
2024/01/06 06:52:03;;;;;;;58.05;27.73;;;1.10;99.90;;;;;;6262941;23;20179;-82
2024/01/06 06:54:31;;;;;;;41.45;24.52;;;1.10;99.90;;;;;;6261931;22;20559;-82
2024/01/06 06:56:58;;;;;;;53.40;26.85;;;1.10;99.90;;;;;;6260283;23;20198;-82
2024/01/06 06:59:25;;;;;;;52.88;26.50;;;1.10;99.90;;;;;;6258605;23;20694;-81
2024/01/06 07:01:52;;;;;;;49.72;24.65;;;1.10;99.90;;;;;;6258600;23;20206;-81
2024/01/06 07:04:18;;;;;;;54.45;27.35;;;1.10;99.90;;;;;;6255607;23;20178;-81
2024/01/06 07:06:45;;;;;;;47.30;25.38;;;1.00;99.90;;;;;;6254643;22;20226;-81
2024/01/06 07:09:12;;;;;;;43.00;25.27;;;1.00;99.90;;;;;;6254266;23;20255;-81
2024/01/06 07:11:40;;;;;;;64.50;29.83;;;1.00;99.90;;;;;;6253663;23;20221;-82
2024/01/06 07:14:07;;;;;;;44.40;26.95;;;1.00;99.90;;;;;;6254448;23;20240;-81
2024/01/06 07:16:34;;;;;;;52.55;24.98;;;1.00;99.90;;;;;;6253778;22;20246;-81
2024/01/06 07:19:01;;;;;;;50.80;26.27;;;0.90;99.90;;;;;;6254502;22;20257;-81
2024/01/06 07:21:28;;;;;;;57.45;26.70;;;0.90;99.90;;;;;;6253708;23;20181;-82
2024/01/06 07:23:54;;;;;;;45.67;25.13;;;0.90;99.90;;;;;;6254969;22;20186;-82
2024/01/06 07:26:21;;;;;;;53.85;26.67;;;0.90;99.90;;;;;;6253762;22;20174;-82
2024/01/06 07:28:49;;;;;;;57.67;24.98;;;0.90;99.90;;;;;;6254294;23;20269;-81
2024/01/06 07:31:17;;;;;;;47.70;25.27;;;0.90;99.90;;;;;;6253683;23;20582;-83
2024/01/06 07:33:44;;;;;;;51.08;25.50;;;0.80;99.90;;;;;;6253402;23;20214;-81
2024/01/06 07:36:11;;;;;;;53.13;26.73;;;0.80;99.90;;;;;;6267943;23;20217;-81
2024/01/06 07:38:37;;;;;;;48.95;25.48;;;0.80;99.90;;;;;;6269987;23;20198;-81
2024/01/06 07:41:04;;;;;;;49.55;28.75;;;0.80;99.90;;;;;;6270664;23;20230;-81
2024/01/06 07:43:31;;;;;;;64.55;28.88;;;0.90;99.90;;;;;;6275326;22;20162;-81
2024/01/06 07:46:00;;;;;;;49.10;26.90;;;0.80;99.90;;;;;;6275860;22;20154;-81
2024/01/06 07:48:26;;;;;;;52.17;29.35;;;0.80;99.90;;;;;;6275660;22;20200;-82
2024/01/06 07:50:53;;;;;;;61.65;28.95;;;0.80;99.90;;;;;;6275650;22;20186;-80
2024/01/06 07:53:20;;;;;;;55.67;27.55;;;0.80;99.90;;;;;;6270975;22;20230;-83
2024/01/06 07:55:47;;;;;;;51.03;28.55;;;0.80;99.90;;;;;;6260808;22;20198;-83
2024/01/06 07:58:14;;;;;;;55.03;27.27;;;0.70;99.90;;;;;;6257262;22;20202;-83
2024/01/06 08:00:41;;;;;;;56.95;28.95;;;0.70;99.90;;;;;;6254273;23;20174;-83
2024/01/06 08:03:11;;;;;;;52.70;25.88;;;0.60;99.90;;;;;;6253785;23;20221;-84
2024/01/06 08:05:38;;;;;;;55.97;27.23;;;0.60;99.90;;;;;;6267402;22;20174;-83
2024/01/06 08:08:06;;;;;;;51.25;28.55;;;0.60;99.90;;;;;;6253871;23;20676;-82
2024/01/06 08:10:33;;;;;;;53.38;27.23;;;0.60;99.90;;;;;;6254763;23;20501;-82
2024/01/06 08:13:00;;;;;;;64.10;29.30;;;0.60;1.00;;;;;;6255121;23;20266;-82
2024/01/06 08:15:27;;;;;;;50.78;29.35;;;0.70;1.00;;;;;;6254533;23;20253;-82
2024/01/06 08:17:54;;;;;;;56.25;29.67;;;0.70;1.00;;;;;;6253571;23;20518;-82
2024/01/06 08:20:22;;;;;;;59.22;29.55;;;0.70;1.00;;;;;;6254634;23;20178;-82
2024/01/06 08:22:49;;;;;;;62.33;28.40;;;0.60;1.00;;;;;;6254451;22;20619;-83
2024/01/06 08:25:17;;;;;;;61.63;28.83;;;0.60;99.90;;;;;;6254473;23;20230;-83
2024/01/06 08:27:44;;;;;;;55.00;28.83;;;0.60;1.00;;;;;;6257016;22;20229;-82
2024/01/06 08:30:12;;;;;;;62.78;30.70;;;0.60;1.00;;;;;;6268835;23;20186;-82
2024/01/06 08:32:39;;;;;;;65.63;29.48;;;0.70;1.00;;;;;;6269430;23;20174;-82
2024/01/06 08:35:07;;;;;;;58.10;29.35;;;0.70;1.00;;;;;;6269638;22;20231;-82
2024/01/06 08:37:35;;;;;;;51.45;26.20;;;0.60;99.90;;;;;;6267043;23;20202;-81
2024/01/06 08:40:03;;;;;;;56.95;29.15;;;0.50;99.90;;;;;;6255331;23;20249;-81
2024/01/06 08:42:30;;;;;;;58.38;28.40;;;0.50;99.90;;;;;;6253895;22;20248;-82
2024/01/06 08:44:56;;;;;;;52.88;27.15;;;0.50;99.90;;;;;;6256009;23;20198;-81
2024/01/06 08:47:23;;;;;;;55.47;27.25;;;0.50;99.90;;;;;;6253799;23;20587;-81
2024/01/06 08:49:50;;;;;;;57.05;27.15;;;0.60;99.90;;;;;;6253606;23;20208;-83
2024/01/06 08:52:17;;;;;;;61.22;28.20;;;0.50;99.90;;;;;;6256084;22;20194;-82
2024/01/06 08:54:45;;;;;;;69.95;31.88;;;0.50;99.90;;;;;;6257211;23;20182;-83
2024/01/06 08:57:12;;;;;;;63.40;29.27;;;0.50;99.90;;;;;;6257698;23;20199;-81
2024/01/06 08:59:39;;;;;;;58.95;29.67;;;0.50;99.90;;;;;;6264768;23;20269;-82
2024/01/06 09:02:07;;;;;;;68.40;30.42;;;0.60;99.90;;;;;;6266512;23;20174;-82
2024/01/06 09:04:34;;;;;;;54.35;26.83;;;0.60;99.90;;;;;;6265881;23;20209;-81
2024/01/06 09:07:01;;;;;;;52.80;26.95;;;0.50;99.90;;;;;;6256410;22;20258;-81
2024/01/06 09:09:29;;;;;;;53.22;28.90;;;0.50;99.90;;;;;;6254941;22;20213;-82
2024/01/06 09:11:58;;;;;;;59.85;30.58;;;0.60;99.90;;;;;;6254537;23;20190;-80
2024/01/06 09:14:26;;;;;;;50.17;26.48;;;0.50;99.90;;;;;;6260635;23;20205;-80
2024/01/06 09:16:53;;;;;;;52.40;28.25;;;0.60;99.90;;;;;;6261904;22;20198;-80
2024/01/06 09:19:21;;;;;;;55.55;25.63;;;0.50;99.90;;;;;;6261033;22;20181;-80
2024/01/06 09:21:48;;;;;;;54.42;27.83;;;0.50;99.90;;;;;;6254614;23;20175;-82
2024/01/06 09:24:15;;;;;;;60.58;27.95;;;0.50;99.90;;;;;;6254300;22;20178;-83
2024/01/06 09:26:42;;;;;;;62.97;28.00;;;0.60;99.90;;;;;;6253523;22;20178;-81
2024/01/06 09:29:10;;;;;;;55.55;26.63;;;0.50;99.90;;;;;;6254129;23;20257;-83
2024/01/06 09:31:37;;;;;;;60.75;29.35;;;0.40;99.90;;;;;;6254410;22;20720;-83
2024/01/06 09:34:04;;;;;;;54.85;27.98;;;0.50;99.90;;;;;;6253920;23;20178;-81
2024/01/06 09:36:32;;;;;;;55.40;26.48;;;0.40;99.90;;;;;;6265775;22;20186;-80
2024/01/06 09:38:59;;;;;;;50.03;27.13;;;0.40;99.90;;;;;;6266105;23;20178;-82
2024/01/06 09:41:26;;;;;;;53.10;28.23;;;0.40;99.90;;;;;;6257154;22;20253;-82
2024/01/06 09:43:53;;;;;;;59.35;30.90;;;0.40;99.90;;;;;;6254597;23;20174;-81
2024/01/06 09:46:26;;;;;;;61.95;31.17;;;0.40;99.90;;;;;;6253941;23;20546;-81
2024/01/06 09:48:54;;;;;;;62.70;27.17;;;0.40;99.90;;;;;;6253237;23;20198;-80
2024/01/06 09:51:21;;;;;;;54.22;27.50;;;0.40;99.90;;;;;;6253674;22;20353;-82
2024/01/06 09:53:50;;;;;;;58.78;30.50;;;0.40;99.90;;;;;;6260031;23;20210;-82
2024/01/06 09:56:17;;;;;;;57.83;30.10;;;0.40;99.90;;;;;;6265833;23;20182;-82
2024/01/06 09:58:45;;;;;;;48.83;25.95;;;0.40;99.90;;;;;;6265883;23;20206;-81
2024/01/06 10:01:14;;;;;;;55.97;27.77;;;0.30;99.90;;;;;;6262261;23;20174;-80
2024/01/06 10:03:42;;;;;;;54.92;27.17;;;0.40;99.90;;;;;;6270477;22;20233;-80
2024/01/06 10:06:10;;;;;;;57.67;27.27;;;0.40;99.90;;;;;;6272130;22;20170;-80
2024/01/06 10:08:37;;;;;;;52.17;28.08;;;0.40;99.90;;;;;;6268930;23;20198;-81
2024/01/06 10:11:04;;;;;;;59.92;27.95;;;0.50;99.90;;;;;;6268975;22;20197;-80
2024/01/06 10:13:30;;;;;;;53.25;28.38;;;0.50;99.90;;;;;;6261696;23;20182;-81
2024/01/06 10:15:58;;;;;;;56.90;30.65;;;0.50;99.90;;;;;;6262199;22;20178;-80
2024/01/06 10:18:29;;;;;;;49.33;27.33;;;0.50;99.90;;;;;;6261178;23;20750;-80
2024/01/06 10:20:57;;;;;;;53.75;28.48;;;0.40;99.90;;;;;;6258807;23;20245;-81
2024/01/06 10:23:25;;;;;;;46.42;27.90;;;0.40;99.90;;;;;;6263056;23;20183;-81
2024/01/06 10:25:53;;;;;;;43.92;25.10;;;0.40;99.90;;;;;;6266882;22;20205;-80
2024/01/06 10:28:21;;;;;;;52.50;26.95;;;0.50;99.90;;;;;;6266537;22;20206;-80
2024/01/06 10:30:48;;;;;;;46.40;27.48;;;0.40;99.90;;;;;;6265165;22;20179;-81
2024/01/06 10:33:15;;;;;;;50.35;24.70;;;0.40;99.90;;;;;;6258695;23;20234;-82
2024/01/06 10:35:44;;;;;;;50.17;27.00;;;0.40;99.90;;;;;;6259745;22;20177;-81
2024/01/06 10:38:12;;;;;;;48.13;26.33;;;0.40;99.90;;;;;;6253980;23;20200;-81
2024/01/06 10:40:39;;;;;;;48.30;28.48;;;0.40;63.10;;;;;;6255104;23;20512;-82
2024/01/06 10:43:07;;;;;;;48.20;26.60;;;0.40;45.00;;;;;;6255955;23;20163;-81
2024/01/06 10:45:34;;;;;;;41.25;25.38;;;0.40;56.80;;;;;;6265200;23;20193;-81
2024/01/06 10:48:01;;;;;;;47.25;24.55;;;0.40;34.80;;;;;;6272738;22;20195;-79
2024/01/06 10:50:29;;;;;;;45.30;24.52;;;0.40;11.10;;;;;;6273564;22;20182;-79
2024/01/06 10:52:57;;;;;;;47.30;26.35;;;0.40;12.20;;;;;;6273395;22;20209;-81
2024/01/06 10:55:27;;;;;;;48.20;23.77;;;0.40;9.00;;;;;;6273678;22;20202;-80
2024/01/06 10:57:55;;;;;;;42.58;23.40;;;0.40;1.00;;;;;;6266609;22;20198;-80
2024/01/06 11:00:22;;;;;;;43.92;23.02;;;0.30;1.00;;;;;;6256218;23;20217;-80
2024/01/06 11:02:52;;;;;;;46.17;26.63;;;0.30;1.00;;;;;;6254067;23;20253;-82
2024/01/06 11:05:20;;;;;;;41.42;22.98;;;0.40;1.00;;;;;;6253507;23;20166;-82
2024/01/06 11:07:51;;;;;;;44.42;25.45;;;0.40;1.00;;;;;;6260589;23;20742;-81
2024/01/06 11:10:20;;;;;;;38.22;24.05;;;0.40;1.00;;;;;;6261758;23;20166;-81
2024/01/06 11:13:09;;;;;;;45.83;25.48;;;0.40;1.00;;;;;;6254112;22;20199;-82
2024/01/06 11:15:44;;;;;;;42.70;24.35;;;0.40;1.00;;;;;;6253605;23;20198;-81
2024/01/06 11:18:32;;;;;;;40.97;24.45;;;0.40;1.00;;;;;;6253467;23;20205;-82
2024/01/06 11:21:26;;;;;;;45.25;25.13;;;0.40;1.00;;;;;;6253104;23;20205;-82
2024/01/06 11:24:16;;;;;;;40.15;23.90;;;0.40;1.00;;;;;;6166574;22;20266;-82
2024/01/06 11:26:44;;;;;;;45.70;23.58;;;0.40;1.00;;;;;;6254055;23;20162;-82
2024/01/06 11:29:13;;;;;;;39.08;24.83;;;0.40;1.00;;;;;;6253708;23;20189;-83
2024/01/06 11:31:40;;;;;;;36.95;22.67;;;0.40;1.00;;;;;;6253512;22;20197;-82
2024/01/06 11:34:15;;;;;;;40.30;25.08;;;0.30;1.00;;;;;;6255869;23;20198;-82
2024/01/06 11:36:44;;;;;;;40.25;24.45;;;0.30;1.00;;;;;;6253587;22;20178;-81
2024/01/06 11:39:38;;;;;;;43.35;24.58;;;0.40;1.00;;;;;;6254007;22;20202;-82
2024/01/06 11:42:05;;;;;;;36.90;24.35;;;0.40;1.00;;;;;;6256437;23;20163;-81
2024/01/06 11:44:38;;;;;;;46.78;25.23;;;0.30;1.00;;;;;;6263011;23;20179;-82
2024/01/06 11:47:06;;;;;;;38.50;24.65;;;0.40;1.00;;;;;;6261474;23;20571;-81
2024/01/06 11:49:32;;;;;;;45.92;23.00;;;0.40;1.00;;;;;;6259285;22;20254;-82
2024/01/06 11:52:00;;;;;;;40.03;23.95;;;0.40;1.00;;;;;;6260067;23;20194;-81
2024/01/06 11:54:27;;;;;;;52.03;24.95;;;0.40;1.00;;;;;;6260837;23;20178;-81
2024/01/06 11:56:57;;;;;;;43.50;23.55;;;0.40;1.00;;;;;;6256589;23;20230;-81
2024/01/06 11:59:24;;;;;;;46.78;26.27;;;0.40;1.00;;;;;;6255082;23;20185;-81
2024/01/06 12:01:52;;;;;;;48.60;24.90;;;0.40;1.00;;;;;;6254497;22;20182;-80
2024/01/06 12:04:22;;;;;;;45.20;23.73;;;0.50;1.00;;;;;;6254359;22;20235;-83
2024/01/06 12:06:49;;;;;;;43.10;24.33;;;0.40;1.00;;;;;;6255243;23;20213;-81
2024/01/06 12:09:19;;;;;;;45.80;23.73;;;0.40;1.00;;;;;;6257439;22;20249;-81
2024/01/06 12:11:46;;;;;;;43.38;25.48;;;0.30;1.00;;;;;;6265984;23;20280;-81
2024/01/06 12:14:13;;;;;;;40.17;24.92;;;0.40;1.00;;;;;;6261047;23;20202;-81
2024/01/06 12:16:40;;;;;;;35.78;22.92;;;0.40;1.00;;;;;;6254513;22;20170;-82
2024/01/06 12:19:09;;;;;;;40.45;22.02;;;0.40;1.00;;;;;;6258027;22;20513;-80
2024/01/06 12:21:37;;;;;;;37.60;22.77;;;0.40;1.00;;;;;;6263407;23;20174;-81
2024/01/06 12:24:17;;;;;;;37.95;22.85;;;0.30;1.00;;;;;;6256691;23;20190;-82
2024/01/06 12:26:45;;;;;;;39.00;23.35;;;0.40;1.00;;;;;;6254003;23;20217;-81
2024/01/06 12:29:12;;;;;;;40.63;23.58;;;0.30;1.00;;;;;;6260776;22;20194;-80
2024/01/06 12:31:39;;;;;;;38.53;21.40;;;0.30;1.00;;;;;;6266417;22;20250;-81
2024/01/06 12:34:08;;;;;;;37.67;23.05;;;0.30;1.00;;;;;;6265358;22;20178;-80
2024/01/06 12:36:35;;;;;;;36.20;22.45;;;0.30;1.00;;;;;;6265909;23;20206;-79
2024/01/06 12:39:03;;;;;;;46.78;24.70;;;0.40;1.00;;;;;;6264294;22;20178;-81
2024/01/06 12:41:33;;;;;;;40.17;22.60;;;0.30;1.00;;;;;;6259237;23;20179;-81
2024/01/06 12:43:59;;;;;;;44.20;23.80;;;0.30;1.00;;;;;;6259976;22;20175;-82
2024/01/06 12:46:27;;;;;;;36.05;21.48;;;0.40;1.00;;;;;;6260568;23;20257;-81
2024/01/06 12:48:53;;;;;;;37.63;23.25;;;0.40;1.00;;;;;;6257080;22;20206;-81
2024/01/06 12:51:22;;;;;;;39.33;23.25;;;0.40;1.00;;;;;;6259239;23;20179;-82
2024/01/06 12:53:49;;;;;;;41.17;23.90;;;0.30;1.00;;;;;;6255657;22;20236;-82
2024/01/06 12:56:16;;;;;;;49.95;23.40;;;0.30;1.00;;;;;;6253989;22;20516;-82